Time;durP1;ratioP1;P1;durP2;ratioP2;P2;SDS_P1;SDS_P2;PMS_P1;PMS_P2;Temp;Humidity;BMP_temperature;BMP_pressure;BME280_temperature;BME280_humidity;BME280_pressure;Samples;Min_cycle;Max_cycle;Signal;HPM_P1;HPM_P2
2022/04/21 00:01:07;;;;;;;9.93;6.30;;;;;;;;;;5091909;28;20043;-60
2022/04/21 00:03:33;;;;;;;12.15;6.18;;;;;;;;;;5106633;28;20110;-60
2022/04/21 00:05:59;;;;;;;12.68;7.57;;;;;;;;;;5112828;27;20473;-61
2022/04/21 00:08:24;;;;;;;11.05;5.60;;;;;;;;;;5112134;28;20035;-61
2022/04/21 00:10:50;;;;;;;12.60;6.05;;;;;;;;;;5111464;28;20473;-60
2022/04/21 00:13:16;;;;;;;10.10;5.80;;;;;;;;;;5098503;28;20054;-60
2022/04/21 00:15:42;;;;;;;9.60;5.82;;;;;;;;;;5112003;28;20031;-60
2022/04/21 00:18:08;;;;;;;9.20;5.80;;;;;;;;;;5111563;27;20032;-60
2022/04/21 00:20:34;;;;;;;10.77;6.25;;;;;;;;;;5106007;28;20084;-61
2022/04/21 00:25:46;;;;;;;9.82;5.90;;;;;;;;;;5100395;28;20489;-61
2022/04/21 00:28:12;;;;;;;12.45;6.05;;;;;;;;;;5112345;28;20043;-61
2022/04/21 00:30:38;;;;;;;11.32;6.50;;;;;;;;;;5107573;28;20035;-61
2022/04/21 00:33:04;;;;;;;9.98;6.53;;;;;;;;;;5095124;28;20397;-61
2022/04/21 00:35:30;;;;;;;10.07;6.05;;;;;;;;;;5112177;28;20165;-61
2022/04/21 00:37:57;;;;;;;14.27;6.30;;;;;;;;;;5120051;22;20051;-61
2022/04/21 00:40:26;;;;;;;12.82;6.13;;;;;;;;;;5074929;28;20089;-61
2022/04/21 00:42:53;;;;;;;11.52;6.70;;;;;;;;;;5093086;28;20048;-62
2022/04/21 00:45:19;;;;;;;12.40;6.75;;;;;;;;;;5094104;28;20039;-61
2022/04/21 00:47:46;;;;;;;10.68;6.60;;;;;;;;;;5095762;28;20068;-61
2022/04/21 00:50:41;;;;;;;10.90;6.45;;;;;;;;;;5087390;28;20036;-61
2022/04/21 00:53:07;;;;;;;10.27;6.70;;;;;;;;;;5068503;28;20036;-61
2022/04/21 00:55:34;;;;;;;10.57;6.45;;;;;;;;;;5089169;28;20075;-61
2022/04/21 00:58:03;;;;;;;8.80;6.20;;;;;;;;;;5092397;28;20036;-61
2022/04/21 01:00:29;;;;;;;9.55;6.28;;;;;;;;;;5092076;28;20125;-62
2022/04/21 01:02:55;;;;;;;11.10;6.88;;;;;;;;;;5092388;28;20044;-61
2022/04/21 01:05:32;;;;;;;10.30;6.53;;;;;;;;;;5086768;28;20073;-61
2022/04/21 01:08:00;;;;;;;10.20;6.78;;;;;;;;;;5090234;28;20044;-61
2022/04/21 01:10:30;;;;;;;12.02;7.32;;;;;;;;;;5091373;28;20028;-61
2022/04/21 01:12:56;;;;;;;12.13;7.40;;;;;;;;;;5095817;28;20078;-61
2022/04/21 01:15:22;;;;;;;12.13;6.53;;;;;;;;;;5092216;28;20036;-61
2022/04/21 01:17:49;;;;;;;15.50;6.78;;;;;;;;;;5093138;28;20035;-61
2022/04/21 01:20:24;;;;;;;11.48;7.03;;;;;;;;;;5082849;28;20036;-61
2022/04/21 01:22:50;;;;;;;11.15;7.25;;;;;;;;;;5090317;28;20036;-61
2022/04/21 01:25:16;;;;;;;12.40;7.70;;;;;;;;;;5089390;28;20553;-61
2022/04/21 01:27:44;;;;;;;11.27;6.75;;;;;;;;;;5089255;28;20111;-61
2022/04/21 01:30:11;;;;;;;8.82;6.55;;;;;;;;;;5091546;28;20040;-61
2022/04/21 01:32:38;;;;;;;11.05;6.97;;;;;;;;;;5091885;28;20383;-61
2022/04/21 01:35:05;;;;;;;12.30;7.20;;;;;;;;;;5100230;28;20077;-61
2022/04/21 01:43:00;;;;;;;12.55;7.75;;;;;;;;;;5088551;28;20075;-61
2022/04/21 01:45:26;;;;;;;10.10;6.95;;;;;;;;;;5083703;28;20074;-61
2022/04/21 01:47:52;;;;;;;13.65;7.55;;;;;;;;;;5091382;28;20721;-61
2022/04/21 01:50:18;;;;;;;11.20;6.93;;;;;;;;;;5079468;28;20102;-61
2022/04/21 01:52:44;;;;;;;12.02;7.38;;;;;;;;;;5085338;28;20115;-61
2022/04/21 01:55:11;;;;;;;11.98;7.45;;;;;;;;;;5081569;28;20074;-61
2022/04/21 01:57:37;;;;;;;9.77;7.38;;;;;;;;;;5086420;28;20520;-61
2022/04/21 02:00:04;;;;;;;14.85;8.07;;;;;;;;;;5089798;28;20064;-61
2022/04/21 02:02:30;;;;;;;12.40;7.65;;;;;;;;;;5082013;28;20036;-62
2022/04/21 02:04:57;;;;;;;13.23;7.97;;;;;;;;;;5077119;28;20040;-61
2022/04/21 02:07:24;;;;;;;15.35;8.80;;;;;;;;;;5080794;28;20464;-61
2022/04/21 02:09:50;;;;;;;15.18;9.70;;;;;;;;;;5082646;28;20077;-61
2022/04/21 02:12:16;;;;;;;17.70;10.82;;;;;;;;;;5089224;28;20413;-61
2022/04/21 02:14:42;;;;;;;20.88;11.15;;;;;;;;;;5088578;28;20051;-62
2022/04/21 02:17:09;;;;;;;16.02;10.05;;;;;;;;;;5086859;28;20041;-61
2022/04/21 02:19:34;;;;;;;16.88;11.73;;;;;;;;;;5086422;28;20321;-61
2022/04/21 02:22:00;;;;;;;18.30;10.70;;;;;;;;;;5082523;28;20037;-61
2022/04/21 02:24:26;;;;;;;18.13;11.75;;;;;;;;;;5088961;28;20455;-61
2022/04/21 02:26:52;;;;;;;19.42;12.15;;;;;;;;;;5084013;28;20036;-61
2022/04/21 02:29:18;;;;;;;21.80;12.43;;;;;;;;;;5082250;28;20180;-61
2022/04/21 02:31:44;;;;;;;20.40;11.70;;;;;;;;;;5090605;28;20521;-61
2022/04/21 02:34:10;;;;;;;20.40;11.70;;;;;;;;;;5089939;28;20492;-61
2022/04/21 02:36:36;;;;;;;17.90;11.40;;;;;;;;;;5082757;28;20033;-61
2022/04/21 02:39:02;;;;;;;16.08;10.45;;;;;;;;;;5090516;28;20035;-61
2022/04/21 02:41:28;;;;;;;15.20;9.93;;;;;;;;;;5089785;28;20032;-61
2022/04/21 02:43:54;;;;;;;15.57;8.95;;;;;;;;;;5091650;28;20108;-61
2022/04/21 02:46:21;;;;;;;16.10;9.85;;;;;;;;;;5083730;28;20041;-61
2022/04/21 02:48:47;;;;;;;15.48;9.60;;;;;;;;;;5093146;28;20663;-61
2022/04/21 02:51:12;;;;;;;15.65;9.27;;;;;;;;;;5086303;28;20115;-61
2022/04/21 02:59:08;;;;;;;16.60;9.95;;;;;;;;;;5087221;28;20040;-61
2022/04/21 03:01:34;;;;;;;13.82;9.50;;;;;;;;;;5092205;28;20036;-61
2022/04/21 03:04:01;;;;;;;17.50;10.30;;;;;;;;;;5092151;28;20040;-61
2022/04/21 03:06:27;;;;;;;14.38;9.85;;;;;;;;;;5089816;28;20411;-61
2022/04/21 03:08:53;;;;;;;14.48;9.23;;;;;;;;;;5087624;28;20051;-61
2022/04/21 03:11:19;;;;;;;13.43;9.05;;;;;;;;;;5074771;28;20048;-61
2022/04/21 03:13:45;;;;;;;16.50;9.27;;;;;;;;;;5089468;28;20040;-61
2022/04/21 03:16:11;;;;;;;15.55;9.90;;;;;;;;;;5092862;28;20107;-61
2022/04/21 03:18:37;;;;;;;14.07;9.52;;;;;;;;;;5092358;28;20491;-61
2022/04/21 03:26:32;;;;;;;15.45;9.85;;;;;;;;;;5088794;28;20040;-61
2022/04/21 03:28:58;;;;;;;17.35;10.80;;;;;;;;;;5095892;28;20032;-61
2022/04/21 03:31:24;;;;;;;14.40;9.93;;;;;;;;;;5095783;28;20047;-62
2022/04/21 03:33:54;;;;;;;17.98;9.35;;;;;;;;;;5100254;28;20039;-62
2022/04/21 03:36:21;;;;;;;15.95;10.45;;;;;;;;;;5096544;28;20040;-62
2022/04/21 03:38:47;;;;;;;14.20;9.88;;;;;;;;;;5095082;28;20040;-62
2022/04/21 03:41:13;;;;;;;14.73;10.20;;;;;;;;;;5093497;28;20097;-63
2022/04/21 03:43:39;;;;;;;15.07;10.07;;;;;;;;;;5087115;28;20470;-62
2022/04/21 03:46:05;;;;;;;16.23;10.55;;;;;;;;;;5099788;28;20032;-62
2022/04/21 03:48:31;;;;;;;16.58;10.85;;;;;;;;;;5090798;28;20054;-62
2022/04/21 03:50:57;;;;;;;18.17;10.15;;;;;;;;;;5089381;28;20037;-62
2022/04/21 03:53:23;;;;;;;15.13;10.15;;;;;;;;;;5103654;28;20059;-62
2022/04/21 03:55:49;;;;;;;15.60;10.40;;;;;;;;;;5088887;28;20067;-62
2022/04/21 03:58:15;;;;;;;16.17;10.07;;;;;;;;;;5091686;28;20039;-62
2022/04/21 04:00:41;;;;;;;13.80;10.02;;;;;;;;;;5091105;28;20034;-62
2022/04/21 04:03:07;;;;;;;15.15;10.35;;;;;;;;;;5087430;28;20039;-62
2022/04/21 04:05:33;;;;;;;16.60;10.07;;;;;;;;;;5088762;28;20052;-62
2022/04/21 04:10:53;;;;;;;14.43;9.73;;;;;;;;;;5103755;28;20047;-62
2022/04/21 04:13:20;;;;;;;15.00;10.18;;;;;;;;;;5088517;28;20083;-62
2022/04/21 04:15:48;;;;;;;16.15;10.07;;;;;;;;;;5081697;28;20044;-62
2022/04/21 04:18:14;;;;;;;16.90;10.20;;;;;;;;;;5086799;28;20098;-62
2022/04/21 04:20:40;;;;;;;15.15;10.05;;;;;;;;;;5088181;28;20040;-62
2022/04/21 04:23:06;;;;;;;15.23;10.18;;;;;;;;;;5080494;28;20032;-62
2022/04/21 04:25:32;;;;;;;16.20;10.75;;;;;;;;;;5096278;28;20478;-62
2022/04/21 04:27:58;;;;;;;15.27;10.07;;;;;;;;;;5084992;28;20048;-62
2022/04/21 04:30:24;;;;;;;18.95;10.50;;;;;;;;;;5088031;28;20494;-63
2022/04/21 04:32:50;;;;;;;17.05;10.80;;;;;;;;;;5077497;28;20036;-63
2022/04/21 04:35:16;;;;;;;17.40;11.23;;;;;;;;;;5086368;28;20043;-63
2022/04/21 04:37:42;;;;;;;16.88;10.30;;;;;;;;;;5080148;28;20028;-63
2022/04/21 04:40:08;;;;;;;20.63;11.32;;;;;;;;;;5078217;28;20028;-62
2022/04/21 04:42:34;;;;;;;18.15;10.48;;;;;;;;;;5083830;28;20161;-62
2022/04/21 04:47:45;;;;;;;14.68;10.25;;;;;;;;;;5091574;28;20047;-62
2022/04/21 04:50:11;;;;;;;18.65;10.55;;;;;;;;;;5092126;28;20047;-62
2022/04/21 04:52:38;;;;;;;18.67;10.80;;;;;;;;;;5089705;28;20043;-62
2022/04/21 04:55:04;;;;;;;16.02;10.35;;;;;;;;;;5095151;28;20039;-62
2022/04/21 04:57:31;;;;;;;14.52;9.80;;;;;;;;;;5091905;28;20047;-62
2022/04/21 04:59:57;;;;;;;15.88;9.88;;;;;;;;;;5094208;28;20036;-63
2022/04/21 05:02:23;;;;;;;14.00;10.13;;;;;;;;;;5098591;28;20521;-62
2022/04/21 05:04:49;;;;;;;17.25;10.90;;;;;;;;;;5097281;28;20043;-62
2022/04/21 05:07:15;;;;;;;16.00;9.93;;;;;;;;;;5099213;28;20050;-62
2022/04/21 05:09:41;;;;;;;17.73;10.40;;;;;;;;;;5085000;28;20122;-62
2022/04/21 05:12:07;;;;;;;15.68;11.13;;;;;;;;;;5093889;28;20047;-62
2022/04/21 05:14:34;;;;;;;16.10;9.95;;;;;;;;;;5091647;28;20044;-62
2022/04/21 05:17:00;;;;;;;17.08;10.57;;;;;;;;;;5090382;28;20034;-62
2022/04/21 05:19:26;;;;;;;17.05;10.55;;;;;;;;;;5082603;28;20044;-62
2022/04/21 05:21:52;;;;;;;17.25;10.45;;;;;;;;;;5080279;28;20581;-62
2022/04/21 05:24:18;;;;;;;17.33;11.55;;;;;;;;;;5078572;28;20036;-62
2022/04/21 05:26:47;;;;;;;17.05;10.93;;;;;;;;;;5082426;28;20044;-62
2022/04/21 05:31:59;;;;;;;19.00;10.98;;;;;;;;;;5093165;28;20040;-62
2022/04/21 05:34:26;;;;;;;17.33;10.57;;;;;;;;;;5096285;28;20044;-62
2022/04/21 05:36:52;;;;;;;16.67;11.18;;;;;;;;;;5097286;28;20036;-62
2022/04/21 05:39:19;;;;;;;17.30;10.82;;;;;;;;;;5073566;28;21469;-62
2022/04/21 05:41:45;;;;;;;16.13;10.63;;;;;;;;;;5078821;28;20417;-62
2022/04/21 05:44:12;;;;;;;15.95;10.75;;;;;;;;;;5080634;28;20044;-62
2022/04/21 05:46:38;;;;;;;15.18;10.20;;;;;;;;;;5081406;28;20063;-62
2022/04/21 05:49:04;;;;;;;18.27;10.82;;;;;;;;;;5091902;28;20032;-62
2022/04/21 05:51:30;;;;;;;18.48;10.27;;;;;;;;;;5080352;28;20532;-62
2022/04/21 05:53:57;;;;;;;16.08;11.02;;;;;;;;;;5079074;28;20093;-62
2022/04/21 05:56:23;;;;;;;17.48;10.68;;;;;;;;;;5084770;28;20797;-62
2022/04/21 05:58:50;;;;;;;16.67;9.88;;;;;;;;;;5080480;28;20111;-62
2022/04/21 06:01:16;;;;;;;17.35;10.43;;;;;;;;;;5086566;28;20127;-62
2022/04/21 06:03:42;;;;;;;17.45;9.57;;;;;;;;;;5082907;28;20112;-62
2022/04/21 06:06:09;;;;;;;17.30;10.38;;;;;;;;;;5084142;28;20036;-62
2022/04/21 06:08:35;;;;;;;14.93;10.40;;;;;;;;;;5085026;28;20039;-62
2022/04/21 06:11:01;;;;;;;14.55;9.63;;;;;;;;;;5086332;28;20055;-63
2022/04/21 06:13:27;;;;;;;15.75;9.43;;;;;;;;;;5082113;28;20024;-62
2022/04/21 06:15:54;;;;;;;15.77;8.90;;;;;;;;;;5086967;28;20071;-62
2022/04/21 06:18:20;;;;;;;12.63;8.98;;;;;;;;;;5077087;28;20040;-62
2022/04/21 06:20:47;;;;;;;14.25;9.05;;;;;;;;;;5083544;28;20456;-62
2022/04/21 06:23:13;;;;;;;12.80;9.40;;;;;;;;;;5092707;28;20497;-62
2022/04/21 06:25:39;;;;;;;11.57;8.35;;;;;;;;;;5089190;28;20145;-62
2022/04/21 06:28:06;;;;;;;14.60;8.63;;;;;;;;;;5090595;28;20040;-62
2022/04/21 06:30:32;;;;;;;12.25;7.80;;;;;;;;;;5084114;28;20045;-62
2022/04/21 06:33:01;;;;;;;13.02;8.93;;;;;;;;;;5089193;28;20042;-62
2022/04/21 06:35:27;;;;;;;14.93;9.10;;;;;;;;;;5084400;28;20489;-62
2022/04/21 06:37:54;;;;;;;12.90;8.50;;;;;;;;;;5102034;22;20012;-62
2022/04/21 06:40:20;;;;;;;12.48;8.25;;;;;;;;;;5113381;28;20068;-61
2022/04/21 06:42:46;;;;;;;10.82;7.80;;;;;;;;;;5112827;28;20028;-61
2022/04/21 06:48:04;;;;;;;10.35;6.72;;;;;;;;;;5109228;27;20047;-61
2022/04/21 06:50:34;;;;;;;11.98;6.55;;;;;;;;;;5089360;28;20119;-61
2022/04/21 06:53:04;;;;;;;9.02;6.10;;;;;;;;;;5096929;28;20115;-61
2022/04/21 06:55:30;;;;;;;9.98;6.47;;;;;;;;;;5081115;28;20072;-61
2022/04/21 06:57:56;;;;;;;9.75;6.15;;;;;;;;;;5081672;28;20032;-60
2022/04/21 07:00:24;;;;;;;8.35;5.53;;;;;;;;;;5080746;28;20127;-61
2022/04/21 07:02:55;;;;;;;7.85;5.20;;;;;;;;;;5089573;28;20046;-61
2022/04/21 07:05:22;;;;;;;8.82;4.85;;;;;;;;;;5094341;28;20048;-60
2022/04/21 07:07:48;;;;;;;5.88;4.50;;;;;;;;;;5079206;27;20235;-61
2022/04/21 07:10:14;;;;;;;6.97;4.93;;;;;;;;;;5090395;28;20036;-60
2022/04/21 07:12:41;;;;;;;7.10;4.57;;;;;;;;;;5096806;28;20443;-61
2022/04/21 07:15:08;;;;;;;9.75;4.60;;;;;;;;;;5086010;28;20039;-61
2022/04/21 07:17:34;;;;;;;5.80;4.25;;;;;;;;;;5083200;28;20032;-61
2022/04/21 07:20:00;;;;;;;7.20;4.57;;;;;;;;;;5091190;28;20043;-61
2022/04/21 07:22:26;;;;;;;8.25;4.50;;;;;;;;;;5073114;28;20206;-61
2022/04/21 07:24:53;;;;;;;6.05;3.92;;;;;;;;;;5076407;28;20039;-61
2022/04/21 07:27:19;;;;;;;6.90;4.30;;;;;;;;;;5083496;28;20056;-61
2022/04/21 07:29:45;;;;;;;6.90;4.47;;;;;;;;;;5095424;28;20085;-61
2022/04/21 07:32:11;;;;;;;6.70;4.65;;;;;;;;;;5096244;28;20131;-61
2022/04/21 07:34:37;;;;;;;4.20;3.40;;;;;;;;;;5075732;28;20128;-61
2022/04/21 07:37:04;;;;;;;6.22;4.03;;;;;;;;;;5089412;28;20493;-61
2022/04/21 07:39:30;;;;;;;4.93;3.75;;;;;;;;;;5093418;28;20088;-61
2022/04/21 07:41:59;;;;;;;6.68;4.65;;;;;;;;;;5092517;28;20036;-61
2022/04/21 07:44:34;;;;;;;5.93;4.50;;;;;;;;;;5088906;28;20154;-61
2022/04/21 07:47:00;;;;;;;9.35;4.07;;;;;;;;;;5093515;28;20051;-61
2022/04/21 07:54:55;;;;;;;4.88;2.78;;;;;;;;;;5092188;28;20036;-60
2022/04/21 07:57:21;;;;;;;4.25;3.03;;;;;;;;;;5094729;28;20122;-61
2022/04/21 07:59:47;;;;;;;6.38;2.90;;;;;;;;;;5093184;28;20039;-61
2022/04/21 08:02:16;;;;;;;5.97;3.10;;;;;;;;;;5092434;28;20040;-61
2022/04/21 08:04:43;;;;;;;6.25;3.30;;;;;;;;;;5093426;28;20036;-61
2022/04/21 08:07:09;;;;;;;6.10;3.20;;;;;;;;;;5092657;28;20044;-61
2022/04/21 08:09:35;;;;;;;3.97;2.97;;;;;;;;;;5092838;28;20067;-61
2022/04/21 08:12:01;;;;;;;4.65;3.10;;;;;;;;;;5097166;28;20070;-61
2022/04/21 08:14:28;;;;;;;3.83;2.92;;;;;;;;;;5092104;28;20039;-61
2022/04/21 08:16:54;;;;;;;5.40;2.92;;;;;;;;;;5092742;28;20040;-61
2022/04/21 08:19:23;;;;;;;6.53;2.97;;;;;;;;;;5093077;28;20043;-62
2022/04/21 08:21:49;;;;;;;5.63;3.00;;;;;;;;;;5091819;28;20036;-62
2022/04/21 08:32:45;;;;;;;7.90;3.33;;;;;;;;;;5088015;28;20122;-62
2022/04/21 08:35:13;;;;;;;3.13;2.72;;;;;;;;;;5084590;28;20127;-61
2022/04/21 08:37:44;;;;;;;4.63;3.80;;;;;;;;;;5089929;28;20406;-61
2022/04/21 08:40:10;;;;;;;6.57;3.60;;;;;;;;;;5091578;28;20048;-62
2022/04/21 08:42:40;;;;;;;4.75;3.65;;;;;;;;;;5092403;28;20485;-62
2022/04/21 08:45:13;;;;;;;5.13;3.08;;;;;;;;;;5089485;28;20040;-62
2022/04/21 08:47:46;;;;;;;4.57;3.40;;;;;;;;;;5091457;28;20035;-62
2022/04/21 08:50:14;;;;;;;5.13;3.67;;;;;;;;;;5084236;28;20055;-62
2022/04/21 08:52:41;;;;;;;4.60;2.90;;;;;;;;;;5086979;28;20166;-61
2022/04/21 08:55:07;;;;;;;4.57;3.45;;;;;;;;;;5094277;28;20645;-61
2022/04/21 08:57:35;;;;;;;3.92;3.03;;;;;;;;;;5089481;28;20096;-62
2022/04/21 09:00:01;;;;;;;5.65;2.75;;;;;;;;;;5089115;28;20035;-62
2022/04/21 09:02:38;;;;;;;5.03;3.45;;;;;;;;;;5084896;28;20068;-62
2022/04/21 09:05:04;;;;;;;5.28;3.65;;;;;;;;;;5084732;28;20036;-62
2022/04/21 09:07:30;;;;;;;7.15;3.70;;;;;;;;;;5089301;28;20043;-62
2022/04/21 09:10:01;;;;;;;5.25;3.10;;;;;;;;;;5089461;28;20036;-62
2022/04/21 09:12:27;;;;;;;4.47;3.13;;;;;;;;;;5083554;28;20565;-62
2022/04/21 09:14:53;;;;;;;4.53;3.20;;;;;;;;;;5087129;28;20036;-62
2022/04/21 09:17:19;;;;;;;4.65;2.80;;;;;;;;;;5094115;28;20051;-61
2022/04/21 09:19:56;;;;;;;6.78;3.67;;;;;;;;;;5087953;28;20025;-61
2022/04/21 09:22:22;;;;;;;5.80;2.97;;;;;;;;;;5075737;28;20040;-61
2022/04/21 09:24:51;;;;;;;7.95;2.95;;;;;;;;;;5092043;28;20043;-62
2022/04/21 09:27:17;;;;;;;3.65;2.95;;;;;;;;;;5084634;28;20119;-62
2022/04/21 09:29:43;;;;;;;5.13;2.83;;;;;;;;;;5093103;28;20512;-62
2022/04/21 09:32:09;;;;;;;7.90;2.60;;;;;;;;;;5074202;28;20051;-61
2022/04/21 09:34:35;;;;;;;4.13;3.08;;;;;;;;;;5089535;28;20032;-62
2022/04/21 09:37:04;;;;;;;6.50;3.15;;;;;;;;;;5088621;28;20059;-62
2022/04/21 09:39:30;;;;;;;11.20;3.30;;;;;;;;;;5089172;28;20393;-62
2022/04/21 09:41:56;;;;;;;4.25;2.97;;;;;;;;;;5090660;28;20028;-61
2022/04/21 09:47:20;;;;;;;6.65;3.10;;;;;;;;;;5090338;28;20047;-62
2022/04/21 09:49:46;;;;;;;6.00;2.97;;;;;;;;;;5075660;28;20677;-62
2022/04/21 09:52:12;;;;;;;8.48;3.33;;;;;;;;;;5091547;28;20490;-62
2022/04/21 09:54:45;;;;;;;10.30;3.50;;;;;;;;;;5089204;28;20509;-62
2022/04/21 09:57:11;;;;;;;5.38;3.30;;;;;;;;;;5089852;28;20486;-61
2022/04/21 09:59:38;;;;;;;4.90;3.10;;;;;;;;;;5094736;28;20389;-61
2022/04/21 10:02:04;;;;;;;6.72;3.00;;;;;;;;;;5088551;28;20040;-61
2022/04/21 10:04:31;;;;;;;4.93;3.53;;;;;;;;;;5096207;28;20028;-62
2022/04/21 10:06:57;;;;;;;4.90;3.28;;;;;;;;;;5087991;28;20032;-62
2022/04/21 10:09:23;;;;;;;7.38;3.20;;;;;;;;;;5087809;28;20048;-61
2022/04/21 10:11:52;;;;;;;4.88;2.92;;;;;;;;;;5090003;28;20039;-62
2022/04/21 10:14:18;;;;;;;4.60;2.92;;;;;;;;;;5089712;28;20036;-61
2022/04/21 10:16:44;;;;;;;6.90;3.40;;;;;;;;;;5088807;28;20474;-61
2022/04/21 10:19:19;;;;;;;6.20;3.72;;;;;;;;;;5070704;28;20520;-61
2022/04/21 10:21:55;;;;;;;5.93;3.17;;;;;;;;;;5087460;28;20078;-61
2022/04/21 10:24:22;;;;;;;4.60;3.08;;;;;;;;;;5089510;28;20048;-61
2022/04/21 10:26:48;;;;;;;5.25;3.53;;;;;;;;;;5087547;28;20544;-60
2022/04/21 10:29:14;;;;;;;5.78;3.35;;;;;;;;;;5066799;28;20048;-61
2022/04/21 10:31:47;;;;;;;6.85;3.70;;;;;;;;;;5073351;28;20036;-62
2022/04/21 10:34:27;;;;;;;4.65;3.28;;;;;;;;;;5090545;28;20062;-61
2022/04/21 10:37:05;;;;;;;4.28;2.80;;;;;;;;;;5095851;28;20031;-61
2022/04/21 10:39:31;;;;;;;6.45;3.17;;;;;;;;;;5083480;28;20043;-61
2022/04/21 10:42:16;;;;;;;5.57;3.05;;;;;;;;;;5091749;28;20432;-61
2022/04/21 10:44:42;;;;;;;3.95;3.22;;;;;;;;;;5078659;28;20452;-61
2022/04/21 10:47:27;;;;;;;6.07;3.63;;;;;;;;;;5078671;28;20036;-61
2022/04/21 10:49:57;;;;;;;6.97;4.22;;;;;;;;;;5090650;28;20043;-61
2022/04/21 10:57:46;;;;;;;7.28;3.53;;;;;;;;;;5078458;28;20534;-62
2022/04/21 11:00:24;;;;;;;10.15;3.78;;;;;;;;;;5072678;28;20047;-62
2022/04/21 11:03:00;;;;;;;5.57;3.78;;;;;;;;;;5084856;28;20032;-61
2022/04/21 11:05:30;;;;;;;7.50;4.20;;;;;;;;;;5090437;28;20485;-61
2022/04/21 11:07:57;;;;;;;6.10;3.35;;;;;;;;;;5090120;28;20098;-61
2022/04/21 11:10:41;;;;;;;6.85;3.58;;;;;;;;;;5092081;28;20054;-61
2022/04/21 11:13:08;;;;;;;4.28;3.15;;;;;;;;;;5088784;28;20052;-61
2022/04/21 11:15:36;;;;;;;4.30;3.00;;;;;;;;;;5080753;28;20064;-61
2022/04/21 11:18:12;;;;;;;5.03;3.60;;;;;;;;;;5071665;28;20097;-61
2022/04/21 11:20:39;;;;;;;5.43;3.60;;;;;;;;;;5092445;28;20032;-61
2022/04/21 11:23:08;;;;;;;5.18;3.72;;;;;;;;;;5093502;28;20042;-61
2022/04/21 11:25:35;;;;;;;5.50;3.70;;;;;;;;;;5087127;28;20092;-61
2022/04/21 11:28:01;;;;;;;7.78;4.00;;;;;;;;;;5084938;28;20052;-61
2022/04/21 11:30:28;;;;;;;3.30;3.00;;;;;;;;;;5085705;28;20040;-62
2022/04/21 11:32:54;;;;;;;5.35;3.67;;;;;;;;;;5093732;28;20123;-61
2022/04/21 11:35:22;;;;;;;6.53;3.30;;;;;;;;;;5093279;28;20098;-62
2022/04/21 11:37:55;;;;;;;8.13;3.53;;;;;;;;;;5092828;28;20032;-61
2022/04/21 11:40:21;;;;;;;5.28;3.75;;;;;;;;;;5089982;28;20051;-61
2022/04/21 11:42:50;;;;;;;6.32;4.13;;;;;;;;;;5085166;28;20036;-61
2022/04/21 11:45:24;;;;;;;5.68;3.53;;;;;;;;;;5066466;28;20109;-61
2022/04/21 11:47:50;;;;;;;7.88;4.20;;;;;;;;;;5069134;28;20044;-61
2022/04/21 11:50:34;;;;;;;6.97;3.67;;;;;;;;;;5093977;28;20040;-62
2022/04/21 11:53:10;;;;;;;7.78;3.42;;;;;;;;;;5092606;28;20082;-61
2022/04/21 11:55:36;;;;;;;8.13;3.50;;;;;;;;;;5089287;28;20235;-61
2022/04/21 11:58:02;;;;;;;6.28;3.60;;;;;;;;;;5083446;28;20036;-61
2022/04/21 12:08:48;;;;;;;6.07;4.03;;;;;;;;;;5089978;28;20048;-61
2022/04/21 12:11:15;;;;;;;9.65;4.30;;;;;;;;;;5083389;28;20162;-61
2022/04/21 12:13:42;;;;;;;7.63;4.50;;;;;;;;;;5052271;28;20040;-62
2022/04/21 12:16:28;;;;;;;9.13;4.75;;;;;;;;;;5069321;28;20051;-62
2022/04/21 12:18:54;;;;;;;4.60;4.10;;;;;;;;;;5072449;28;20032;-62
2022/04/21 12:21:34;;;;;;;5.80;4.35;;;;;;;;;;5089589;28;20047;-61
2022/04/21 12:24:09;;;;;;;8.93;4.28;;;;;;;;;;5072984;28;20516;-61
2022/04/21 12:26:36;;;;;;;6.00;3.75;;;;;;;;;;5062258;28;20056;-61
2022/04/21 12:29:02;;;;;;;5.45;4.00;;;;;;;;;;5092067;28;20040;-61
2022/04/21 12:31:28;;;;;;;6.32;3.92;;;;;;;;;;5092171;28;20032;-61
2022/04/21 12:33:54;;;;;;;6.28;3.72;;;;;;;;;;5091783;28;20032;-61
2022/04/21 12:36:26;;;;;;;4.35;3.55;;;;;;;;;;5092795;28;20050;-61
2022/04/21 12:38:56;;;;;;;8.88;4.38;;;;;;;;;;5084194;22;20043;-63
2022/04/21 12:41:22;;;;;;;8.85;3.90;;;;;;;;;;5068697;28;20055;-63
2022/04/21 12:43:49;;;;;;;6.57;4.25;;;;;;;;;;5070397;28;20033;-63
2022/04/21 12:46:15;;;;;;;4.78;3.83;;;;;;;;;;5070896;28;20079;-63
2022/04/21 12:48:50;;;;;;;6.70;4.30;;;;;;;;;;5065201;28;20444;-63
2022/04/21 12:51:20;;;;;;;6.43;3.75;;;;;;;;;;5052092;28;20124;-63
2022/04/21 12:53:57;;;;;;;6.75;3.90;;;;;;;;;;5049565;28;20479;-63
2022/04/21 12:56:34;;;;;;;7.32;4.03;;;;;;;;;;5052545;28;20128;-63
2022/04/21 12:59:01;;;;;;;6.25;4.20;;;;;;;;;;5051593;28;20033;-63
2022/04/21 13:01:27;;;;;;;6.43;4.05;;;;;;;;;;5052261;28;20037;-63
2022/04/21 13:03:53;;;;;;;7.97;4.22;;;;;;;;;;5050754;28;20044;-63
2022/04/21 13:06:27;;;;;;;7.85;3.88;;;;;;;;;;5048869;28;20459;-64
2022/04/21 13:08:53;;;;;;;8.07;4.72;;;;;;;;;;5050088;28;20041;-63
2022/04/21 13:11:19;;;;;;;7.18;4.25;;;;;;;;;;5052132;28;20440;-64
2022/04/21 13:13:45;;;;;;;5.70;4.47;;;;;;;;;;5052013;28;20037;-64
2022/04/21 13:16:11;;;;;;;7.63;4.18;;;;;;;;;;5055290;28;20407;-64
2022/04/21 13:18:37;;;;;;;5.30;4.10;;;;;;;;;;5050865;28;20025;-64
2022/04/21 13:23:47;;;;;;;8.48;4.10;;;;;;;;;;5046923;28;20064;-63
2022/04/21 13:26:13;;;;;;;6.97;4.20;;;;;;;;;;5051019;28;20076;-63
2022/04/21 13:28:39;;;;;;;7.75;3.97;;;;;;;;;;5051723;28;20037;-64
2022/04/21 13:33:50;;;;;;;6.57;3.92;;;;;;;;;;5049780;28;20036;-63
2022/04/21 13:36:16;;;;;;;7.90;4.13;;;;;;;;;;5051297;28;20044;-64
2022/04/21 13:38:44;;;;;;;7.18;4.35;;;;;;;;;;5054042;28;20072;-64
2022/04/21 13:41:10;;;;;;;7.47;4.65;;;;;;;;;;5052004;28;20037;-64
2022/04/21 13:43:36;;;;;;;5.57;4.05;;;;;;;;;;5050618;28;20031;-64
2022/04/21 13:46:02;;;;;;;5.18;4.03;;;;;;;;;;5052540;28;20033;-64
2022/04/21 13:48:28;;;;;;;6.50;4.40;;;;;;;;;;5045541;28;20057;-64
2022/04/21 13:50:54;;;;;;;10.45;4.30;;;;;;;;;;5048812;28;20040;-64
2022/04/21 13:53:20;;;;;;;5.43;3.97;;;;;;;;;;5050122;28;20045;-64
2022/04/21 13:55:46;;;;;;;9.52;4.47;;;;;;;;;;5050699;28;20033;-64
2022/04/21 13:58:14;;;;;;;5.80;3.90;;;;;;;;;;5048612;28;20095;-64
2022/04/21 14:00:44;;;;;;;6.63;4.50;;;;;;;;;;5050863;28;20080;-64
2022/04/21 14:03:10;;;;;;;5.28;3.90;;;;;;;;;;5053312;28;20520;-64
2022/04/21 14:05:37;;;;;;;5.90;4.57;;;;;;;;;;5049697;28;20033;-64
2022/04/21 14:08:04;;;;;;;5.25;4.25;;;;;;;;;;5045820;28;20052;-64
2022/04/21 14:10:30;;;;;;;6.18;4.35;;;;;;;;;;5050025;28;20048;-64
2022/04/21 14:12:56;;;;;;;9.40;6.35;;;;;;;;;;5051494;28;20043;-64
2022/04/21 14:15:22;;;;;;;6.60;4.38;;;;;;;;;;5050547;28;20041;-64
2022/04/21 14:17:49;;;;;;;10.15;5.03;;;;;;;;;;5049371;28;20036;-64
2022/04/21 14:20:15;;;;;;;6.68;4.93;;;;;;;;;;5050254;28;20068;-64
2022/04/21 14:22:41;;;;;;;8.02;4.70;;;;;;;;;;5049432;28;20056;-64
2022/04/21 14:25:07;;;;;;;11.57;4.43;;;;;;;;;;5050678;28;20435;-64
2022/04/21 14:27:33;;;;;;;12.10;4.82;;;;;;;;;;5050470;28;20047;-64
2022/04/21 14:30:00;;;;;;;7.78;4.25;;;;;;;;;;5048534;28;20119;-64
2022/04/21 14:32:26;;;;;;;10.77;4.63;;;;;;;;;;5049052;28;20132;-64
2022/04/21 14:34:52;;;;;;;8.00;4.35;;;;;;;;;;5050001;28;20539;-64
2022/04/21 14:45:32;;;;;;;7.03;4.60;;;;;;;;;;5051861;28;20111;-64
2022/04/21 14:47:58;;;;;;;6.05;4.00;;;;;;;;;;5051262;28;20586;-64
2022/04/21 14:50:24;;;;;;;9.00;4.10;;;;;;;;;;5052983;28;20049;-64
2022/04/21 14:52:51;;;;;;;8.10;3.97;;;;;;;;;;5053160;28;20408;-64
2022/04/21 14:55:17;;;;;;;10.98;4.43;;;;;;;;;;5057546;28;20044;-64
2022/04/21 14:57:43;;;;;;;10.60;4.57;;;;;;;;;;5051800;28;20045;-64
2022/04/21 15:00:09;;;;;;;7.43;4.70;;;;;;;;;;5054877;28;20029;-64
2022/04/21 15:02:35;;;;;;;8.80;4.82;;;;;;;;;;5052413;28;20067;-64
2022/04/21 15:05:01;;;;;;;9.48;4.38;;;;;;;;;;5053417;28;20037;-64
2022/04/21 15:07:27;;;;;;;8.77;4.20;;;;;;;;;;5050883;28;20041;-64
2022/04/21 15:09:53;;;;;;;7.53;4.25;;;;;;;;;;5049858;28;20060;-64
2022/04/21 15:12:19;;;;;;;5.22;3.85;;;;;;;;;;5050349;28;20049;-64
2022/04/21 15:14:45;;;;;;;5.95;4.18;;;;;;;;;;5053818;28;20033;-64
2022/04/21 15:17:11;;;;;;;6.03;4.20;;;;;;;;;;5052423;28;20037;-64
2022/04/21 15:19:37;;;;;;;5.60;4.22;;;;;;;;;;5053912;28;20106;-64
2022/04/21 15:22:03;;;;;;;7.03;4.60;;;;;;;;;;5053097;28;20040;-64
2022/04/21 15:24:32;;;;;;;7.05;4.25;;;;;;;;;;5052799;28;20037;-64
2022/04/21 15:26:58;;;;;;;8.20;4.45;;;;;;;;;;5054085;28;20045;-64
2022/04/21 15:29:24;;;;;;;6.32;4.63;;;;;;;;;;5055926;28;20495;-64
2022/04/21 15:31:50;;;;;;;8.35;4.57;;;;;;;;;;5051545;28;20040;-64
2022/04/21 15:34:16;;;;;;;7.40;4.65;;;;;;;;;;5047889;28;20029;-64
2022/04/21 15:36:44;;;;;;;7.22;4.72;;;;;;;;;;5052506;28;20441;-64
2022/04/21 15:39:12;;;;;;;6.53;5.03;;;;;;;;;;5052444;28;20045;-64
2022/04/21 15:41:38;;;;;;;6.47;5.00;;;;;;;;;;5052182;28;20040;-63
2022/04/21 15:44:05;;;;;;;11.27;5.30;;;;;;;;;;5047410;28;20028;-61
2022/04/21 15:46:31;;;;;;;8.00;5.38;;;;;;;;;;5044219;28;20060;-64
2022/04/21 15:48:56;;;;;;;8.25;4.88;;;;;;;;;;5047671;28;20033;-62
2022/04/21 15:51:25;;;;;;;9.20;5.30;;;;;;;;;;5051287;28;20063;-62